createdAt,value
2023-05-06T00:00:57.815Z,97292.81
2023-05-06T00:03:01.474Z,97283.97
2023-05-06T00:05:04.774Z,97284.47
2023-05-06T00:07:07.408Z,97279.47
2023-05-06T00:09:10.571Z,97274.19
2023-05-06T00:11:13.721Z,97268.84
2023-05-06T00:13:17.738Z,97274.75
2023-05-06T00:15:20.510Z,97274.66
2023-05-06T00:17:23.111Z,97274.59
2023-05-06T00:19:25.736Z,97273.75
2023-05-06T00:21:28.660Z,97264.13
2023-05-06T00:23:31.236Z,97270.34
2023-05-06T00:25:33.848Z,97266.88
2023-05-06T00:27:36.428Z,97278.25
2023-05-06T00:29:40.315Z,97269.41
2023-05-06T00:31:42.923Z,97271.09
2023-05-06T00:33:45.527Z,97261.50
2023-05-06T00:35:48.246Z,97273.75
2023-05-06T00:37:58.325Z,97271.09
2023-05-06T00:40:01.018Z,97276.38
2023-05-06T00:42:03.905Z,97271.22
2023-05-06T00:44:06.781Z,97275.63
2023-05-06T00:46:11.917Z,97278.16
2023-05-06T00:48:15.917Z,97274.75
2023-05-06T00:50:19.483Z,97279.19
2023-05-06T00:52:22.137Z,97282.75
2023-05-06T00:54:25.719Z,97283.78
2023-05-06T00:56:28.464Z,97283.78
2023-05-06T00:58:31.185Z,97282.84
2023-05-06T01:00:34.729Z,97288.19
2023-05-06T01:02:47.189Z,97291.78
2023-05-06T01:04:51.685Z,97288.19
2023-05-06T01:07:04.619Z,97282.09
2023-05-06T01:09:15.698Z,97283.78
2023-05-06T01:11:25.348Z,97287.34
2023-05-06T01:13:35.456Z,97283.03
2023-05-06T01:15:41.539Z,97280.31
2023-05-06T01:17:47.165Z,97283.78
2023-05-06T01:19:53.317Z,97279.47
2023-05-06T01:21:58.123Z,97276.81
2023-05-06T01:24:02.184Z,97276.06
2023-05-06T01:26:04.783Z,97280.50
2023-05-06T01:28:10.297Z,97275.34
2023-05-06T01:30:14.691Z,97278.91
2023-05-06T01:32:37.246Z,97273.06
2023-05-06T01:34:46.743Z,97277.66
2023-05-06T01:36:57.631Z,97277.75
2023-05-06T01:39:10.092Z,97278.78
2023-05-06T01:41:16.967Z,97279.81
2023-05-06T01:43:20.367Z,97283.47
2023-05-06T01:45:26.601Z,97275.59
2023-05-06T01:47:29.242Z,97277.38
2023-05-06T01:49:32.184Z,97281.94
2023-05-06T01:51:34.930Z,97285.59
2023-05-06T01:53:37.523Z,97292.63
2023-05-06T01:55:41.452Z,97290.84
2023-05-06T01:57:44.030Z,97287.38
2023-05-06T01:59:48.565Z,97288.75
2023-05-06T02:01:51.184Z,97292.59
2023-05-06T02:03:53.838Z,97285.72
2023-05-06T02:05:56.593Z,97289.19
2023-05-06T02:07:59.173Z,97285.13
2023-05-06T02:10:01.727Z,97283.69
2023-05-06T02:12:06.230Z,97289.13
2023-05-06T02:14:08.863Z,97283.97
2023-05-06T02:16:11.562Z,97282.28
2023-05-06T02:18:14.198Z,97280.59
2023-05-06T02:20:16.818Z,97278.72
2023-05-06T02:22:19.393Z,97268.31
2023-05-06T02:24:21.942Z,97275.22
2023-05-06T02:26:24.558Z,97273.38
2023-05-06T02:28:28.472Z,97270.66
2023-05-06T02:30:34.583Z,97271.69
2023-05-06T02:32:37.353Z,97274.56
2023-05-06T02:34:40.048Z,97269.50
2023-05-06T02:36:42.653Z,97266.97
2023-05-06T02:38:45.194Z,97269.69
2023-05-06T02:40:47.808Z,97262.28
2023-05-06T02:42:50.684Z,97258.22
2023-05-06T02:44:54.667Z,97265.63
2023-05-06T02:46:57.614Z,97264.09
2023-05-06T02:49:00.348Z,97261.47
2023-05-06T02:51:03.134Z,97250.22
2023-05-06T02:53:05.740Z,97257.16
2023-05-06T02:55:09.045Z,97254.72
2023-05-06T02:57:11.827Z,97249.47
2023-05-06T02:59:14.644Z,97245.03
2023-05-06T03:01:18.548Z,97240.81
2023-05-06T03:03:22.973Z,97245.97
2023-05-06T03:05:25.556Z,97246.91
2023-05-06T03:07:28.134Z,97253.09
2023-05-06T03:09:30.662Z,97248.78
2023-05-06T03:11:33.527Z,97247.25
2023-05-06T03:13:36.182Z,97250.75
2023-05-06T03:15:38.770Z,97249.97
2023-05-06T03:17:42.726Z,97257.94
2023-05-06T03:19:45.583Z,97247.53
2023-05-06T03:21:48.200Z,97256.41
2023-05-06T03:23:50.848Z,97255.66
2023-05-06T03:25:53.383Z,97255.81
2023-05-06T03:27:55.944Z,97260.91
2023-05-06T03:29:58.487Z,97255.72
2023-05-06T03:32:03.905Z,97254.91
2023-05-06T03:34:07.831Z,97254.97
2023-05-06T03:36:10.528Z,97249.13
2023-05-06T03:38:13.129Z,97249.41
2023-05-06T03:40:15.922Z,97245.25
2023-05-06T03:42:18.552Z,97245.34
2023-05-06T03:44:21.158Z,97252.34
2023-05-06T03:46:23.748Z,97249.09
2023-05-06T03:48:26.394Z,97254.53
2023-05-06T03:50:30.366Z,97256.47
2023-05-06T03:52:33.042Z,97254.97
2023-05-06T03:54:35.620Z,97252.34
2023-05-06T03:56:38.190Z,97255.13
2023-05-06T03:58:40.838Z,97261.31
2023-05-06T04:00:43.441Z,97264.84
2023-05-06T04:02:46.097Z,97267.56
2023-05-06T04:04:48.670Z,97262.41
2023-05-06T04:06:52.591Z,97262.41
2023-05-06T04:08:55.166Z,97263.25
2023-05-06T04:10:58.761Z,97264.13
2023-05-06T04:13:02.059Z,97261.50
2023-05-06T04:15:05.234Z,97263.94
2023-05-06T04:17:07.816Z,97270.19
2023-05-06T04:19:10.383Z,97273.56
2023-05-06T04:21:13.006Z,97268.16
2023-05-06T04:23:17.253Z,97267.25
2023-05-06T04:25:21.206Z,97267.66
2023-05-06T04:27:26.539Z,97267.91
2023-05-06T04:29:29.085Z,97269.75
2023-05-06T04:31:32.891Z,97268.09
2023-05-06T04:33:35.710Z,97268.91
2023-05-06T04:35:38.454Z,97264.09
2023-05-06T04:37:41.354Z,97271.19
2023-05-06T04:39:47.390Z,97267.97
2023-05-06T04:41:50.012Z,97270.25
2023-05-06T04:43:52.589Z,97272.97
2023-05-06T04:45:55.316Z,97270.50
2023-05-06T04:47:57.966Z,97277.88
2023-05-06T04:50:00.930Z,97272.69
2023-05-06T04:52:03.511Z,97274.28
2023-05-06T04:54:06.212Z,97278.84
2023-05-06T04:56:10.231Z,97281.66
2023-05-06T04:58:15.380Z,97281.81
2023-05-06T05:00:19.099Z,97281.66
2023-05-06T05:02:21.741Z,97283.50
2023-05-06T05:04:24.473Z,97287.66
2023-05-06T05:06:27.031Z,97290.19
2023-05-06T05:08:29.709Z,97286.56
2023-05-06T05:10:32.416Z,97280.41
2023-05-06T05:12:36.499Z,97284.47
2023-05-06T05:14:39.051Z,97286.84
2023-05-06T05:16:41.808Z,97293.63
2023-05-06T05:18:44.457Z,97294.53
2023-05-06T05:20:50.018Z,97303.69
2023-05-06T05:22:52.625Z,97295.75
2023-05-06T05:24:55.173Z,97297.47
2023-05-06T05:26:57.753Z,97300.16
2023-05-06T05:29:01.805Z,97304.47
2023-05-06T05:31:05.046Z,97302.69
2023-05-06T05:33:07.969Z,97309.53
2023-05-06T05:35:11.310Z,97311.16
2023-05-06T05:37:14.094Z,97314.47
2023-05-06T05:39:16.639Z,97305.50
2023-05-06T05:41:19.179Z,97304.78
2023-05-06T05:43:22.763Z,97307.72
2023-05-06T05:45:26.755Z,97310.19
2023-05-06T05:47:29.332Z,97305.53
2023-05-06T05:49:31.884Z,97310.41
2023-05-06T05:51:35.832Z,97310.50
2023-05-06T05:53:38.391Z,97308.75
2023-05-06T05:55:40.967Z,97310.75
2023-05-06T05:57:43.531Z,97317.78
2023-05-06T05:59:46.215Z,97312.63
2023-05-06T06:01:50.106Z,97318.59
2023-05-06T06:03:54.280Z,97314.22
2023-05-06T06:05:57.071Z,97314.22
2023-05-06T06:08:02.215Z,97319.38
2023-05-06T06:10:07.468Z,97315.00
2023-05-06T06:12:10.057Z,97319.38
2023-05-06T06:14:12.619Z,97313.22
2023-05-06T06:16:15.214Z,97317.44
2023-05-06T06:18:19.172Z,97314.91
2023-05-06T06:20:24.646Z,97312.19
2023-05-06T06:22:27.319Z,97324.16
2023-05-06T06:24:32.571Z,97317.25
2023-05-06T06:26:35.217Z,97316.28
2023-05-06T06:28:37.893Z,97317.91
2023-05-06T06:30:40.476Z,97314.09
2023-05-06T06:32:49.341Z,97320.78
2023-05-06T06:34:53.295Z,97320.28
2023-05-06T06:36:55.823Z,97318.50
2023-05-06T06:38:58.380Z,97319.28
2023-05-06T06:41:00.972Z,97324.44
2023-05-06T06:43:03.568Z,97327.41
2023-05-06T06:45:08.189Z,97328.75
2023-05-06T06:47:10.887Z,97333.81
2023-05-06T06:49:13.491Z,97332.81
2023-05-06T06:51:17.402Z,97330.03
2023-05-06T06:53:20.000Z,97333.59
2023-05-06T06:55:22.872Z,97333.75
2023-05-06T06:57:25.525Z,97340.25
2023-05-06T06:59:28.100Z,97334.19
2023-05-06T07:01:30.727Z,97339.25
2023-05-06T07:03:33.358Z,97344.00
2023-05-06T07:05:35.982Z,97337.00
2023-05-06T07:07:39.895Z,97336.81
2023-05-06T07:09:44.438Z,97342.06
2023-05-06T07:11:47.299Z,97348.00
2023-05-06T07:13:49.854Z,97341.63
2023-05-06T07:15:52.428Z,97343.16
2023-05-06T07:17:55.033Z,97339.34
2023-05-06T07:19:57.611Z,97337.63
2023-05-06T07:22:00.233Z,97349.50
2023-05-06T07:24:04.342Z,97351.97
2023-05-06T07:26:06.905Z,97347.13
2023-05-06T07:28:09.502Z,97341.28
2023-05-06T07:30:12.644Z,97343.91
2023-05-06T07:32:15.302Z,97341.50
2023-05-06T07:34:17.854Z,97352.19
2023-05-06T07:36:20.479Z,97347.22
2023-05-06T07:38:23.095Z,97349.94
2023-05-06T07:40:27.034Z,97355.88
2023-05-06T07:42:29.608Z,97350.84
2023-05-06T07:44:32.187Z,97349.84
2023-05-06T07:46:34.972Z,97350.75
2023-05-06T07:48:37.632Z,97348.03
2023-05-06T07:50:40.381Z,97349.66
2023-05-06T07:52:42.974Z,97353.06
2023-05-06T07:54:45.519Z,97353.91
2023-05-06T07:56:49.411Z,97352.78
2023-05-06T07:58:52.039Z,97350.81
2023-05-06T08:00:54.858Z,97351.59
2023-05-06T08:02:57.586Z,97350.66
2023-05-06T08:05:00.231Z,97352.34
2023-05-06T08:07:02.831Z,97360.06
2023-05-06T08:09:05.417Z,97356.41
2023-05-06T08:11:07.985Z,97353.44
2023-05-06T08:13:12.011Z,97358.25
2023-05-06T08:15:14.936Z,97353.00
2023-05-06T08:17:17.615Z,97355.34
2023-05-06T08:19:20.298Z,97363.03
2023-05-06T08:21:22.881Z,97361.59
2023-05-06T08:23:25.546Z,97362.22
2023-05-06T08:25:28.110Z,97358.53
2023-05-06T08:27:30.759Z,97357.63
2023-05-06T08:29:34.658Z,97354.78
2023-05-06T08:31:37.306Z,97365.03
2023-05-06T08:33:39.885Z,97364.84
2023-05-06T08:35:42.435Z,97364.84
2023-05-06T08:37:45.062Z,97364.69
2023-05-06T08:39:47.653Z,97377.84
2023-05-06T08:41:53.334Z,97366.56
2023-05-06T08:43:58.095Z,97371.34
2023-05-06T08:46:02.148Z,97367.78
2023-05-06T08:48:05.099Z,97361.97
2023-05-06T08:50:08.826Z,97367.91
2023-05-06T08:52:12.568Z,97373.34
2023-05-06T08:54:16.018Z,97364.63
2023-05-06T08:56:20.008Z,97367.25
2023-05-06T08:58:26.083Z,97368.94
2023-05-06T09:00:28.667Z,97369.25
2023-05-06T09:02:32.665Z,97370.16
2023-05-06T09:04:36.243Z,97368.00
2023-05-06T09:06:39.667Z,97363.22
2023-05-06T09:08:42.232Z,97365.84
2023-05-06T09:10:46.118Z,97363.69
2023-05-06T09:12:48.739Z,97363.13
2023-05-06T09:14:51.944Z,97357.09
2023-05-06T09:16:54.584Z,97360.19
2023-05-06T09:18:59.738Z,97361.97
2023-05-06T09:21:05.548Z,97360.97
2023-05-06T09:23:09.393Z,97353.63
2023-05-06T09:25:12.514Z,97359.66
2023-05-06T09:27:15.603Z,97353.31
2023-05-06T09:29:18.242Z,97350.13
2023-05-06T09:31:20.839Z,97353.31
2023-05-06T09:33:23.529Z,97350.75
2023-05-06T09:35:29.380Z,97350.41
2023-05-06T09:37:32.217Z,97355.38
2023-05-06T09:39:34.774Z,97347.50
2023-05-06T09:41:37.328Z,97358.03
2023-05-06T09:43:42.067Z,97349.03
2023-05-06T09:45:46.263Z,97350.25
2023-05-06T09:47:50.025Z,97347.09
2023-05-06T09:49:52.826Z,97356.69
2023-05-06T09:51:57.610Z,97350.63
2023-05-06T09:54:01.605Z,97349.72
2023-05-06T09:56:05.300Z,97339.38
2023-05-06T09:58:09.150Z,97337.19
2023-05-06T10:00:13.163Z,97331.44
2023-05-06T10:02:16.349Z,97320.84
2023-05-06T10:04:20.102Z,97326.25
2023-05-06T10:06:24.187Z,97319.19
2023-05-06T10:08:28.384Z,97321.13
2023-05-06T10:10:31.258Z,97321.13
2023-05-06T10:12:33.912Z,97313.00
2023-05-06T10:14:38.158Z,97315.47
2023-05-06T10:16:42.538Z,97315.84
2023-05-06T10:18:47.283Z,97312.09
2023-05-06T10:20:53.513Z,97310.59
2023-05-06T10:23:04.528Z,97314.19
2023-05-06T10:25:16.815Z,97312.41
2023-05-06T10:27:24.422Z,97302.94
2023-05-06T10:29:27.191Z,97303.41
2023-05-06T10:31:31.541Z,97302.75
2023-05-06T10:33:34.695Z,97300.66
2023-05-06T10:35:45.843Z,97290.00
2023-05-06T10:37:50.148Z,97290.44
2023-05-06T10:39:54.806Z,97279.47
2023-05-06T10:41:59.023Z,97280.53
2023-05-06T10:44:01.908Z,97279.34
2023-05-06T10:46:07.023Z,97275.88
2023-05-06T10:48:10.613Z,97281.25
2023-05-06T10:50:21.034Z,97269.44
2023-05-06T10:52:23.612Z,97268.06
2023-05-06T10:54:26.199Z,97263.75
2023-05-06T10:56:29.795Z,97262.78
2023-05-06T10:58:37.398Z,97256.47
2023-05-06T11:00:39.981Z,97262.28
2023-05-06T11:02:43.493Z,97255.94
2023-05-06T11:04:52.524Z,97258.59
2023-05-06T11:06:55.239Z,97260.72
2023-05-06T11:08:58.236Z,97254.81
2023-05-06T11:11:00.852Z,97247.75
2023-05-06T11:13:23.660Z,97245.50
2023-05-06T11:15:38.534Z,97249.53
2023-05-06T11:17:41.229Z,97253.25
2023-05-06T11:19:43.877Z,97247.22
2023-05-06T11:21:47.016Z,97245.41
2023-05-06T11:24:10.566Z,97239.50
2023-05-06T11:26:14.244Z,97243.94
2023-05-06T11:28:17.146Z,97230.94
2023-05-06T11:30:19.783Z,97238.75
2023-05-06T11:32:26.058Z,97238.13
2023-05-06T11:34:29.959Z,97229.03
2023-05-06T11:36:33.515Z,97222.78
2023-05-06T11:38:43.475Z,97230.44
2023-05-06T11:40:46.139Z,97236.47
2023-05-06T11:42:48.749Z,97231.72
2023-05-06T11:44:51.655Z,97237.00
2023-05-06T11:46:58.040Z,97229.94
2023-05-06T11:49:02.324Z,97226.97
2023-05-06T11:51:05.058Z,97224.63
2023-05-06T11:53:07.660Z,97228.31
2023-05-06T11:55:10.944Z,97227.28
2023-05-06T11:57:14.546Z,97223.41
2023-05-06T11:59:18.484Z,97229.34
2023-05-06T12:01:21.044Z,97225.53
2023-05-06T12:03:25.602Z,97240.75
2023-05-06T12:05:29.677Z,97236.94
2023-05-06T12:07:32.333Z,97233.91
2023-05-06T12:09:35.980Z,97226.50
2023-05-06T12:11:39.798Z,97231.03
2023-05-06T12:13:42.549Z,97229.00
2023-05-06T12:15:45.925Z,97231.28
2023-05-06T12:17:48.927Z,97227.22
2023-05-06T12:19:51.757Z,97227.47
2023-05-06T12:21:55.712Z,97220.97
2023-05-06T12:24:00.390Z,97220.72
2023-05-06T12:26:04.402Z,97218.91
2023-05-06T12:28:15.440Z,97216.63
2023-05-06T12:30:30.036Z,97217.00
2023-05-06T12:32:32.821Z,97218.81
2023-05-06T12:34:39.093Z,97215.81
2023-05-06T12:36:43.287Z,97215.03
2023-05-06T12:38:54.119Z,97223.28
2023-05-06T12:40:56.910Z,97215.75
2023-05-06T12:42:59.640Z,97217.22
2023-05-06T12:45:14.549Z,97204.56
2023-05-06T12:47:22.241Z,97208.66
2023-05-06T12:49:24.825Z,97217.81
2023-05-06T12:51:27.693Z,97204.91
2023-05-06T12:53:34.497Z,97211.97
2023-05-06T12:55:39.640Z,97212.22
2023-05-06T12:57:42.271Z,97211.22
2023-05-06T12:59:46.111Z,97201.28
2023-05-06T13:01:48.682Z,97203.53
2023-05-06T13:03:52.383Z,97202.66
2023-05-06T13:05:54.955Z,97200.16
2023-05-06T13:07:57.514Z,97187.53
2023-05-06T13:10:00.145Z,97189.44
2023-05-06T13:12:04.622Z,97196.31
2023-05-06T13:14:07.684Z,97195.97
2023-05-06T13:16:10.781Z,97191.44
2023-05-06T13:18:13.376Z,97185.22
2023-05-06T13:20:16.383Z,97182.88
2023-05-06T13:22:18.974Z,97178.81
2023-05-06T13:24:21.874Z,97170.13
2023-05-06T13:26:24.921Z,97168.34
2023-05-06T13:28:28.834Z,97162.13
2023-05-06T13:30:32.394Z,97159.44
2023-05-06T13:32:35.303Z,97164.53
2023-05-06T13:34:37.901Z,97161.97
2023-05-06T13:36:40.498Z,97163.00
2023-05-06T13:38:43.057Z,97156.63
2023-05-06T13:40:47.609Z,97153.59
2023-05-06T13:42:50.233Z,97148.16
2023-05-06T13:44:54.146Z,97154.00
2023-05-06T13:46:56.732Z,97153.56
2023-05-06T13:48:59.364Z,97152.34
2023-05-06T13:51:02.011Z,97144.44
2023-05-06T13:53:05.404Z,97136.34
2023-05-06T13:55:09.799Z,97141.28
2023-05-06T13:57:12.509Z,97136.38
2023-05-06T13:59:15.063Z,97138.13
2023-05-06T14:01:19.465Z,97140.06
2023-05-06T14:03:22.394Z,97131.88
2023-05-06T14:05:25.100Z,97132.56
2023-05-06T14:07:27.748Z,97133.06
2023-05-06T14:09:30.322Z,97122.06
2023-05-06T14:11:32.929Z,97130.84
2023-05-06T14:13:35.499Z,97124.53
2023-05-06T14:15:38.128Z,97129.81
2023-05-06T14:17:42.449Z,97123.94
2023-05-06T14:19:45.862Z,97120.13
2023-05-06T14:21:48.454Z,97114.84
2023-05-06T14:23:51.059Z,97117.41
2023-05-06T14:25:53.606Z,97117.31
2023-05-06T14:27:56.407Z,97114.47
2023-05-06T14:29:59.054Z,97120.22
2023-05-06T14:32:01.791Z,97116.69
2023-05-06T14:34:05.765Z,97112.88
2023-05-06T14:36:08.746Z,97113.41
2023-05-06T14:38:11.665Z,97112.84
2023-05-06T14:40:15.856Z,97117.31
2023-05-06T14:42:18.420Z,97114.44
2023-05-06T14:44:21.095Z,97115.22
2023-05-06T14:46:23.779Z,97111.31
2023-05-06T14:48:26.384Z,97102.56
2023-05-06T14:50:30.725Z,97104.69
2023-05-06T14:52:33.278Z,97098.50
2023-05-06T14:54:41.896Z,97105.44
2023-05-06T14:56:46.394Z,97098.56
2023-05-06T14:58:48.967Z,97090.72
2023-05-06T15:00:51.575Z,97089.22
2023-05-06T15:02:54.232Z,97087.59
2023-05-06T15:04:57.061Z,97086.53
2023-05-06T15:07:01.724Z,97083.72
2023-05-06T15:09:05.023Z,97085.53
2023-05-06T15:11:07.974Z,97087.44
2023-05-06T15:13:10.911Z,97087.63
2023-05-06T15:15:13.730Z,97091.16
2023-05-06T15:17:16.687Z,97092.97
2023-05-06T15:19:19.241Z,97089.16
2023-05-06T15:21:21.866Z,97091.34
2023-05-06T15:23:25.860Z,97089.03
2023-05-06T15:25:35.752Z,97088.03
2023-05-06T15:27:38.954Z,97092.84
2023-05-06T15:29:41.571Z,97088.00
2023-05-06T15:31:45.614Z,97089.97
2023-05-06T15:33:48.190Z,97086.44
2023-05-06T15:35:50.763Z,97093.13
2023-05-06T15:37:58.448Z,97089.41
2023-05-06T15:40:02.516Z,97096.22
2023-05-06T15:42:06.110Z,97097.13
2023-05-06T15:44:10.488Z,97096.72
2023-05-06T15:46:13.151Z,97099.94
2023-05-06T15:48:15.951Z,97099.84
2023-05-06T15:50:32.925Z,97101.75
2023-05-06T15:52:36.624Z,97092.53
2023-05-06T15:54:40.002Z,97101.50
2023-05-06T15:56:45.228Z,97099.16
2023-05-06T15:58:47.841Z,97100.75
2023-05-06T16:00:50.408Z,97098.88
2023-05-06T16:02:55.190Z,97093.81
2023-05-06T16:04:58.116Z,97093.91
2023-05-06T16:07:00.788Z,97090.00
2023-05-06T16:09:03.459Z,97092.81
2023-05-06T16:11:06.071Z,97090.09
2023-05-06T16:13:09.980Z,97097.97
2023-05-06T16:15:12.744Z,97092.72
2023-05-06T16:17:16.481Z,97089.16
2023-05-06T16:19:19.034Z,97087.69
2023-05-06T16:21:21.610Z,97089.91
2023-05-06T16:23:24.170Z,97092.19
2023-05-06T16:25:27.004Z,97092.19
2023-05-06T16:27:29.622Z,97091.59
2023-05-06T16:29:33.571Z,97087.91
2023-05-06T16:31:36.176Z,97095.06
2023-05-06T16:33:38.976Z,97088.41
2023-05-06T16:35:41.817Z,97084.53
2023-05-06T16:37:44.592Z,97087.53
2023-05-06T16:39:47.268Z,97079.56
2023-05-06T16:41:49.865Z,97079.56
2023-05-06T16:43:52.407Z,97085.44
2023-05-06T16:45:56.334Z,97080.97
2023-05-06T16:47:59.026Z,97081.41
2023-05-06T16:50:01.650Z,97076.66
2023-05-06T16:52:04.466Z,97072.63
2023-05-06T16:54:07.032Z,97074.84
2023-05-06T16:56:10.764Z,97072.31
2023-05-06T16:58:13.344Z,97069.81
2023-05-06T17:00:16.807Z,97070.94
2023-05-06T17:02:21.447Z,97064.53
2023-05-06T17:04:25.527Z,97055.16
2023-05-06T17:06:31.222Z,97056.53
2023-05-06T17:08:36.309Z,97062.28
2023-05-06T17:10:39.367Z,97057.66
2023-05-06T17:12:42.850Z,97064.53
2023-05-06T17:14:45.550Z,97056.38
2023-05-06T17:16:48.212Z,97057.06
2023-05-06T17:18:52.142Z,97054.97
2023-05-06T17:20:57.030Z,97053.44
2023-05-06T17:22:59.937Z,97054.13
2023-05-06T17:25:02.658Z,97048.25
2023-05-06T17:27:05.691Z,97046.16
2023-05-06T17:29:08.308Z,97048.38
2023-05-06T17:31:10.928Z,97048.50
2023-05-06T17:33:13.712Z,97050.88
2023-05-06T17:35:17.858Z,97053.81
2023-05-06T17:37:20.418Z,97040.38
2023-05-06T17:39:22.991Z,97044.28
2023-05-06T17:41:25.887Z,97034.19
2023-05-06T17:43:28.536Z,97046.91
2023-05-06T17:45:31.223Z,97042.09
2023-05-06T17:47:34.256Z,97039.03
2023-05-06T17:49:36.920Z,97039.41
2023-05-06T17:51:40.858Z,97046.94
2023-05-06T17:53:43.432Z,97039.38
2023-05-06T17:55:45.977Z,97044.97
2023-05-06T17:57:48.657Z,97039.75
2023-05-06T17:59:51.253Z,97040.31
2023-05-06T18:01:53.872Z,97045.19
2023-05-06T18:03:56.666Z,97048.22
2023-05-06T18:05:59.904Z,97048.59
2023-05-06T18:08:04.768Z,97061.56
2023-05-06T18:10:08.596Z,97058.47
2023-05-06T18:12:11.165Z,97057.88
2023-05-06T18:14:13.848Z,97058.38
2023-05-06T18:16:16.442Z,97064.94
2023-05-06T18:18:19.001Z,97062.66
2023-05-06T18:20:21.552Z,97063.91
2023-05-06T18:22:24.105Z,97066.16
2023-05-06T18:24:28.106Z,97071.88
2023-05-06T18:26:44.095Z,97071.28
2023-05-06T18:28:47.704Z,97071.53
2023-05-06T18:30:50.248Z,97081.88
2023-05-06T18:32:54.555Z,97077.09
2023-05-06T18:34:59.022Z,97086.97
2023-05-06T18:37:01.578Z,97079.63
2023-05-06T18:39:04.553Z,97084.13
2023-05-06T18:41:09.011Z,97088.72
2023-05-06T18:43:11.594Z,97092.81
2023-05-06T18:45:14.302Z,97093.09
2023-05-06T18:47:17.132Z,97090.66
2023-05-06T18:49:19.662Z,97091.91
2023-05-06T18:51:22.279Z,97097.41
2023-05-06T18:53:24.909Z,97095.88
2023-05-06T18:55:27.791Z,97101.63
2023-05-06T18:57:31.780Z,97093.69
2023-05-06T18:59:34.596Z,97103.09
2023-05-06T19:01:37.243Z,97107.22
2023-05-06T19:03:40.124Z,97110.47
2023-05-06T19:05:42.743Z,97110.50
2023-05-06T19:07:45.299Z,97106.41
2023-05-06T19:09:47.849Z,97114.56
2023-05-06T19:11:51.516Z,97117.31
2023-05-06T19:13:55.432Z,97123.47
2023-05-06T19:15:58.087Z,97116.47
2023-05-06T19:18:00.680Z,97115.63
2023-05-06T19:20:04.170Z,97119.25
2023-05-06T19:22:06.757Z,97120.22
2023-05-06T19:24:09.374Z,97124.78
2023-05-06T19:26:13.161Z,97113.59
2023-05-06T19:28:15.710Z,97113.13
2023-05-06T19:30:19.897Z,97114.81
2023-05-06T19:32:22.500Z,97118.63
2023-05-06T19:34:25.458Z,97118.88
2023-05-06T19:36:28.234Z,97113.84
2023-05-06T19:38:30.948Z,97118.41
2023-05-06T19:40:34.792Z,97118.41
2023-05-06T19:42:37.365Z,97121.53
2023-05-06T19:44:39.951Z,97121.31
2023-05-06T19:46:43.868Z,97124.41
2023-05-06T19:48:46.907Z,97129.56
2023-05-06T19:50:49.460Z,97124.63
2023-05-06T19:52:52.043Z,97125.69
2023-05-06T19:54:54.585Z,97126.78
2023-05-06T19:56:57.288Z,97126.78
2023-05-06T19:58:59.876Z,97124.50
2023-05-06T20:01:02.509Z,97132.94
2023-05-06T20:03:06.518Z,97121.00
2023-05-06T20:05:10.020Z,97123.16
2023-05-06T20:07:13.522Z,97122.34
2023-05-06T20:09:16.134Z,97120.03
2023-05-06T20:11:18.708Z,97130.63
2023-05-06T20:13:21.409Z,97121.34
2023-05-06T20:15:24.063Z,97117.59
2023-05-06T20:17:27.112Z,97130.19
2023-05-06T20:19:31.304Z,97125.94
2023-05-06T20:21:33.908Z,97120.91
2023-05-06T20:23:36.462Z,97129.75
2023-05-06T20:25:38.996Z,97131.47
2023-05-06T20:27:41.554Z,97126.72
2023-05-06T20:29:44.128Z,97131.34
2023-05-06T20:31:47.097Z,97125.28
2023-05-06T20:33:49.762Z,97124.75
2023-05-06T20:35:53.667Z,97123.31
2023-05-06T20:37:56.445Z,97128.81
2023-05-06T20:40:02.439Z,97125.34
2023-05-06T20:42:05.205Z,97128.91
2023-05-06T20:44:07.759Z,97125.66
2023-05-06T20:46:10.336Z,97124.09
2023-05-06T20:48:14.865Z,97114.50
2023-05-06T20:50:18.665Z,97121.69
2023-05-06T20:52:22.664Z,97110.53
2023-05-06T20:54:25.356Z,97118.19
2023-05-06T20:56:28.641Z,97120.75
2023-05-06T20:58:31.188Z,97122.25
2023-05-06T21:00:33.763Z,97126.78
2023-05-06T21:02:41.026Z,97122.66
2023-05-06T21:04:44.382Z,97117.38
2023-05-06T21:06:46.944Z,97123.53
2023-05-06T21:08:51.801Z,97115.69
2023-05-06T21:10:54.456Z,97115.38
2023-05-06T21:12:57.037Z,97116.25
2023-05-06T21:14:59.671Z,97116.66
2023-05-06T21:17:02.339Z,97120.38
2023-05-06T21:19:04.981Z,97110.88
2023-05-06T21:21:07.550Z,97111.94
2023-05-06T21:23:10.172Z,97111.00
2023-05-06T21:25:14.277Z,97113.22
2023-05-06T21:27:16.993Z,97112.91
2023-05-06T21:29:20.581Z,97122.09
2023-05-06T21:31:25.141Z,97117.63
2023-05-06T21:33:27.776Z,97121.03
2023-05-06T21:35:31.076Z,97118.59
2023-05-06T21:37:35.582Z,97121.88
2023-05-06T21:39:38.173Z,97110.41
2023-05-06T21:41:42.116Z,97109.66
2023-05-06T21:43:44.687Z,97108.06
2023-05-06T21:45:47.227Z,97113.44
2023-05-06T21:47:50.429Z,97107.88
2023-05-06T21:49:53.033Z,97106.78
2023-05-06T21:51:56.225Z,97099.09
2023-05-06T21:53:59.190Z,97107.00
2023-05-06T21:56:01.753Z,97105.22
2023-05-06T21:58:05.982Z,97098.47
2023-05-06T22:00:12.106Z,97108.06
2023-05-06T22:02:15.981Z,97105.34
2023-05-06T22:04:20.040Z,97108.91
2023-05-06T22:06:23.239Z,97102.88
2023-05-06T22:08:25.997Z,97105.75
2023-05-06T22:10:28.664Z,97107.63
2023-05-06T22:12:32.100Z,97106.78
2023-05-06T22:14:41.065Z,97101.63
2023-05-06T22:16:45.722Z,97106.19
2023-05-06T22:18:48.565Z,97104.47
2023-05-06T22:20:52.467Z,97096.56
2023-05-06T22:22:55.118Z,97100.91
2023-05-06T22:24:57.665Z,97111.47
2023-05-06T22:27:00.645Z,97110.06
2023-05-06T22:29:03.221Z,97107.56
2023-05-06T22:31:07.197Z,97102.28
2023-05-06T22:33:09.774Z,97107.56
2023-05-06T22:35:12.505Z,97104.16
2023-05-06T22:37:16.169Z,97103.31
2023-05-06T22:39:18.805Z,97098.25
2023-05-06T22:41:21.429Z,97101.94
2023-05-06T22:43:24.064Z,97109.84
2023-05-06T22:45:26.843Z,97105.44
2023-05-06T22:47:31.087Z,97094.88
2023-05-06T22:49:33.690Z,97101.19
2023-05-06T22:51:36.446Z,97100.47
2023-05-06T22:53:39.073Z,97102.16
2023-05-06T22:55:41.735Z,97104.28
2023-05-06T22:57:44.776Z,97099.19
2023-05-06T22:59:47.365Z,97096.69
2023-05-06T23:01:49.977Z,97098.81
2023-05-06T23:03:53.980Z,97105.16
2023-05-06T23:05:56.679Z,97098.09
2023-05-06T23:07:59.219Z,97100.00
2023-05-06T23:10:02.042Z,97104.50
2023-05-06T23:12:05.044Z,97095.75
2023-05-06T23:14:08.152Z,97105.44
2023-05-06T23:16:10.837Z,97098.41
2023-05-06T23:18:13.493Z,97093.13
2023-05-06T23:20:17.583Z,97102.75
2023-05-06T23:22:20.148Z,97100.19
2023-05-06T23:24:22.696Z,97099.34
2023-05-06T23:26:25.334Z,97092.50
2023-05-06T23:28:28.527Z,97088.94
2023-05-06T23:30:31.315Z,97091.03
2023-05-06T23:32:37.211Z,97086.91
2023-05-06T23:34:39.803Z,97090.47
2023-05-06T23:36:43.773Z,97082.78
2023-05-06T23:38:48.855Z,97086.47
2023-05-06T23:40:51.520Z,97089.94
2023-05-06T23:42:54.095Z,97089.38
2023-05-06T23:44:56.660Z,97093.53
2023-05-06T23:46:59.223Z,97086.97
2023-05-06T23:49:01.774Z,97085.56
2023-05-06T23:51:04.564Z,97081.91
2023-05-06T23:53:08.503Z,97089.47
2023-05-06T23:55:11.623Z,97085.25
2023-05-06T23:57:14.416Z,97091.38
2023-05-06T23:59:17.406Z,97084.41
